sensor_id;sensor_type;location;lat;lon;timestamp;P1;durP1;ratioP1;P2;durP2;ratioP2
38787;SDS011;24536;45.488;12.238;2023-04-15T00:02:02;3.35;;;0.75;;
38787;SDS011;24536;45.488;12.238;2023-04-15T00:04:38;1.58;;;0.90;;
38787;SDS011;24536;45.488;12.238;2023-04-15T00:07:03;1.67;;;0.90;;
38787;SDS011;24536;45.488;12.238;2023-04-15T00:09:29;2.03;;;1.20;;
38787;SDS011;24536;45.488;12.238;2023-04-15T00:11:54;1.70;;;0.90;;
38787;SDS011;24536;45.488;12.238;2023-04-15T00:14:20;2.25;;;0.82;;
38787;SDS011;24536;45.488;12.238;2023-04-15T00:16:46;3.50;;;1.00;;
38787;SDS011;24536;45.488;12.238;2023-04-15T00:19:14;1.45;;;0.80;;
38787;SDS011;24536;45.488;12.238;2023-04-15T00:21:39;1.48;;;1.02;;
38787;SDS011;24536;45.488;12.238;2023-04-15T00:24:05;1.45;;;0.80;;
38787;SDS011;24536;45.488;12.238;2023-04-15T00:26:30;3.15;;;1.55;;
38787;SDS011;24536;45.488;12.238;2023-04-15T00:28:56;2.17;;;1.20;;
38787;SDS011;24536;45.488;12.238;2023-04-15T00:31:22;1.75;;;1.15;;
38787;SDS011;24536;45.488;12.238;2023-04-15T00:33:47;2.53;;;1.55;;
38787;SDS011;24536;45.488;12.238;2023-04-15T00:36:13;2.20;;;1.10;;
38787;SDS011;24536;45.488;12.238;2023-04-15T00:38:39;1.35;;;1.10;;
38787;SDS011;24536;45.488;12.238;2023-04-15T00:41:05;3.78;;;0.95;;
38787;SDS011;24536;45.488;12.238;2023-04-15T00:43:31;2.00;;;1.20;;
38787;SDS011;24536;45.488;12.238;2023-04-15T00:45:57;1.52;;;1.33;;
38787;SDS011;24536;45.488;12.238;2023-04-15T00:48:24;1.60;;;1.25;;
38787;SDS011;24536;45.488;12.238;2023-04-15T00:50:51;2.05;;;1.50;;
38787;SDS011;24536;45.488;12.238;2023-04-15T00:53:17;1.85;;;0.80;;
38787;SDS011;24536;45.488;12.238;2023-04-15T00:55:43;1.58;;;1.15;;
38787;SDS011;24536;45.488;12.238;2023-04-15T00:58:09;2.28;;;1.20;;
38787;SDS011;24536;45.488;12.238;2023-04-15T01:00:35;1.17;;;1.08;;
38787;SDS011;24536;45.488;12.238;2023-04-15T01:03:01;2.05;;;1.25;;
38787;SDS011;24536;45.488;12.238;2023-04-15T01:05:27;1.13;;;1.02;;
38787;SDS011;24536;45.488;12.238;2023-04-15T01:07:53;1.60;;;1.00;;
38787;SDS011;24536;45.488;12.238;2023-04-15T01:10:20;1.38;;;1.00;;
38787;SDS011;24536;45.488;12.238;2023-04-15T01:12:46;1.10;;;1.00;;
38787;SDS011;24536;45.488;12.238;2023-04-15T01:15:12;2.13;;;1.10;;
38787;SDS011;24536;45.488;12.238;2023-04-15T01:17:38;1.20;;;0.98;;
38787;SDS011;24536;45.488;12.238;2023-04-15T01:20:04;3.55;;;1.30;;
38787;SDS011;24536;45.488;12.238;2023-04-15T01:22:30;2.10;;;1.08;;
38787;SDS011;24536;45.488;12.238;2023-04-15T01:25:11;2.03;;;1.40;;
38787;SDS011;24536;45.488;12.238;2023-04-15T01:27:40;2.33;;;1.00;;
38787;SDS011;24536;45.488;12.238;2023-04-15T01:30:07;2.20;;;1.42;;
38787;SDS011;24536;45.488;12.238;2023-04-15T01:32:34;1.40;;;1.10;;
38787;SDS011;24536;45.488;12.238;2023-04-15T01:35:00;2.00;;;1.13;;
38787;SDS011;24536;45.488;12.238;2023-04-15T01:37:26;1.48;;;1.17;;
38787;SDS011;24536;45.488;12.238;2023-04-15T01:39:53;1.30;;;1.17;;
38787;SDS011;24536;45.488;12.238;2023-04-15T01:42:20;1.90;;;1.10;;
38787;SDS011;24536;45.488;12.238;2023-04-15T01:44:46;2.10;;;1.00;;
38787;SDS011;24536;45.488;12.238;2023-04-15T01:47:12;1.65;;;1.23;;
38787;SDS011;24536;45.488;12.238;2023-04-15T01:49:38;2.40;;;1.20;;
38787;SDS011;24536;45.488;12.238;2023-04-15T01:52:03;1.75;;;1.27;;
38787;SDS011;24536;45.488;12.238;2023-04-15T01:54:29;1.27;;;1.10;;
38787;SDS011;24536;45.488;12.238;2023-04-15T01:56:55;2.28;;;1.00;;
38787;SDS011;24536;45.488;12.238;2023-04-15T01:59:21;1.30;;;0.93;;
38787;SDS011;24536;45.488;12.238;2023-04-15T02:01:47;1.65;;;1.08;;
38787;SDS011;24536;45.488;12.238;2023-04-15T02:04:12;3.20;;;1.10;;
38787;SDS011;24536;45.488;12.238;2023-04-15T02:06:42;1.13;;;0.95;;
38787;SDS011;24536;45.488;12.238;2023-04-15T02:09:08;1.42;;;1.20;;
38787;SDS011;24536;45.488;12.238;2023-04-15T02:11:34;2.83;;;1.20;;
38787;SDS011;24536;45.488;12.238;2023-04-15T02:14:01;1.42;;;1.02;;
38787;SDS011;24536;45.488;12.238;2023-04-15T02:16:28;1.40;;;1.30;;
38787;SDS011;24536;45.488;12.238;2023-04-15T02:18:54;2.92;;;1.20;;
38787;SDS011;24536;45.488;12.238;2023-04-15T02:21:20;1.48;;;1.08;;
38787;SDS011;24536;45.488;12.238;2023-04-15T02:23:46;1.35;;;0.82;;
38787;SDS011;24536;45.488;12.238;2023-04-15T02:26:12;1.20;;;1.00;;
38787;SDS011;24536;45.488;12.238;2023-04-15T02:28:38;1.52;;;1.27;;
38787;SDS011;24536;45.488;12.238;2023-04-15T02:31:07;2.38;;;1.23;;
38787;SDS011;24536;45.488;12.238;2023-04-15T02:33:33;1.95;;;1.27;;
38787;SDS011;24536;45.488;12.238;2023-04-15T02:36:01;2.40;;;1.30;;
38787;SDS011;24536;45.488;12.238;2023-04-15T02:38:26;1.40;;;1.30;;
38787;SDS011;24536;45.488;12.238;2023-04-15T02:40:52;2.03;;;1.55;;
38787;SDS011;24536;45.488;12.238;2023-04-15T02:43:18;3.40;;;2.00;;
38787;SDS011;24536;45.488;12.238;2023-04-15T02:45:44;3.15;;;1.52;;
38787;SDS011;24536;45.488;12.238;2023-04-15T02:48:11;1.88;;;1.40;;
38787;SDS011;24536;45.488;12.238;2023-04-15T02:50:37;1.63;;;1.52;;
38787;SDS011;24536;45.488;12.238;2023-04-15T02:53:05;4.60;;;1.70;;
38787;SDS011;24536;45.488;12.238;2023-04-15T02:55:31;2.88;;;1.60;;
38787;SDS011;24536;45.488;12.238;2023-04-15T02:57:57;5.43;;;2.17;;
38787;SDS011;24536;45.488;12.238;2023-04-15T03:00:24;3.17;;;1.85;;
38787;SDS011;24536;45.488;12.238;2023-04-15T03:02:51;3.88;;;1.90;;
38787;SDS011;24536;45.488;12.238;2023-04-15T03:05:23;1.67;;;1.58;;
38787;SDS011;24536;45.488;12.238;2023-04-15T03:07:49;2.42;;;2.03;;
38787;SDS011;24536;45.488;12.238;2023-04-15T03:10:15;2.08;;;1.75;;
38787;SDS011;24536;45.488;12.238;2023-04-15T03:12:41;2.28;;;2.08;;
38787;SDS011;24536;45.488;12.238;2023-04-15T03:15:07;2.10;;;1.75;;
38787;SDS011;24536;45.488;12.238;2023-04-15T03:17:33;3.10;;;2.17;;
38787;SDS011;24536;45.488;12.238;2023-04-15T03:20:02;4.47;;;2.50;;
38787;SDS011;24536;45.488;12.238;2023-04-15T03:22:29;3.22;;;2.33;;
38787;SDS011;24536;45.488;12.238;2023-04-15T03:24:55;2.17;;;1.98;;
38787;SDS011;24536;45.488;12.238;2023-04-15T03:27:21;3.45;;;2.60;;
38787;SDS011;24536;45.488;12.238;2023-04-15T03:29:47;3.10;;;2.65;;
38787;SDS011;24536;45.488;12.238;2023-04-15T03:32:13;2.75;;;2.30;;
38787;SDS011;24536;45.488;12.238;2023-04-15T03:34:39;3.55;;;2.45;;
38787;SDS011;24536;45.488;12.238;2023-04-15T03:37:06;3.72;;;2.35;;
38787;SDS011;24536;45.488;12.238;2023-04-15T03:39:32;3.97;;;2.85;;
38787;SDS011;24536;45.488;12.238;2023-04-15T03:41:58;2.75;;;2.53;;
38787;SDS011;24536;45.488;12.238;2023-04-15T03:44:27;3.38;;;2.65;;
38787;SDS011;24536;45.488;12.238;2023-04-15T03:46:52;2.85;;;2.50;;
38787;SDS011;24536;45.488;12.238;2023-04-15T03:49:18;3.95;;;2.70;;
38787;SDS011;24536;45.488;12.238;2023-04-15T03:51:44;4.20;;;2.92;;
38787;SDS011;24536;45.488;12.238;2023-04-15T03:54:10;4.63;;;2.30;;
38787;SDS011;24536;45.488;12.238;2023-04-15T03:56:39;3.65;;;2.42;;
38787;SDS011;24536;45.488;12.238;2023-04-15T03:59:04;4.72;;;2.88;;
38787;SDS011;24536;45.488;12.238;2023-04-15T04:01:30;2.78;;;2.33;;
38787;SDS011;24536;45.488;12.238;2023-04-15T04:03:56;2.72;;;2.45;;
38787;SDS011;24536;45.488;12.238;2023-04-15T04:06:22;4.57;;;3.30;;
38787;SDS011;24536;45.488;12.238;2023-04-15T04:08:47;4.88;;;2.70;;
38787;SDS011;24536;45.488;12.238;2023-04-15T04:11:13;2.97;;;2.67;;
38787;SDS011;24536;45.488;12.238;2023-04-15T04:13:39;4.28;;;2.85;;
38787;SDS011;24536;45.488;12.238;2023-04-15T04:16:05;2.85;;;2.30;;
38787;SDS011;24536;45.488;12.238;2023-04-15T04:18:31;4.40;;;2.88;;
38787;SDS011;24536;45.488;12.238;2023-04-15T04:20:57;4.30;;;2.88;;
38787;SDS011;24536;45.488;12.238;2023-04-15T04:23:22;4.55;;;2.70;;
38787;SDS011;24536;45.488;12.238;2023-04-15T04:25:48;6.65;;;2.63;;
38787;SDS011;24536;45.488;12.238;2023-04-15T04:28:14;4.45;;;2.15;;
38787;SDS011;24536;45.488;12.238;2023-04-15T04:30:39;3.28;;;2.30;;
38787;SDS011;24536;45.488;12.238;2023-04-15T04:33:05;3.08;;;2.50;;
38787;SDS011;24536;45.488;12.238;2023-04-15T04:35:31;3.38;;;2.47;;
38787;SDS011;24536;45.488;12.238;2023-04-15T04:37:59;3.40;;;2.58;;
38787;SDS011;24536;45.488;12.238;2023-04-15T04:40:25;3.40;;;2.83;;
38787;SDS011;24536;45.488;12.238;2023-04-15T04:42:51;4.97;;;2.67;;
38787;SDS011;24536;45.488;12.238;2023-04-15T04:45:18;5.38;;;2.58;;
38787;SDS011;24536;45.488;12.238;2023-04-15T04:47:44;4.97;;;2.60;;
38787;SDS011;24536;45.488;12.238;2023-04-15T04:50:11;3.13;;;2.25;;
38787;SDS011;24536;45.488;12.238;2023-04-15T04:52:37;4.82;;;2.65;;
38787;SDS011;24536;45.488;12.238;2023-04-15T04:55:03;3.20;;;2.30;;
38787;SDS011;24536;45.488;12.238;2023-04-15T04:57:29;3.80;;;2.15;;
38787;SDS011;24536;45.488;12.238;2023-04-15T04:59:55;3.17;;;2.08;;
38787;SDS011;24536;45.488;12.238;2023-04-15T05:02:21;5.43;;;2.05;;
38787;SDS011;24536;45.488;12.238;2023-04-15T05:04:47;3.42;;;1.90;;
38787;SDS011;24536;45.488;12.238;2023-04-15T05:07:14;5.18;;;2.00;;
38787;SDS011;24536;45.488;12.238;2023-04-15T05:09:45;2.60;;;1.73;;
38787;SDS011;24536;45.488;12.238;2023-04-15T05:12:11;3.53;;;1.55;;
38787;SDS011;24536;45.488;12.238;2023-04-15T05:14:40;4.60;;;1.70;;
38787;SDS011;24536;45.488;12.238;2023-04-15T05:17:06;2.28;;;1.67;;
38787;SDS011;24536;45.488;12.238;2023-04-15T05:19:32;2.05;;;1.52;;
38787;SDS011;24536;45.488;12.238;2023-04-15T05:21:58;3.50;;;1.70;;
38787;SDS011;24536;45.488;12.238;2023-04-15T05:24:31;1.88;;;1.17;;
38787;SDS011;24536;45.488;12.238;2023-04-15T05:26:59;3.40;;;1.48;;
38787;SDS011;24536;45.488;12.238;2023-04-15T05:29:26;2.72;;;1.42;;
38787;SDS011;24536;45.488;12.238;2023-04-15T05:31:51;2.15;;;1.35;;
38787;SDS011;24536;45.488;12.238;2023-04-15T05:34:17;3.33;;;1.27;;
38787;SDS011;24536;45.488;12.238;2023-04-15T05:36:43;3.00;;;1.27;;
38787;SDS011;24536;45.488;12.238;2023-04-15T05:39:08;2.72;;;1.10;;
38787;SDS011;24536;45.488;12.238;2023-04-15T05:41:34;4.40;;;1.40;;
38787;SDS011;24536;45.488;12.238;2023-04-15T05:44:00;2.10;;;1.10;;
38787;SDS011;24536;45.488;12.238;2023-04-15T05:46:26;2.88;;;1.00;;
38787;SDS011;24536;45.488;12.238;2023-04-15T05:48:51;4.50;;;1.23;;
38787;SDS011;24536;45.488;12.238;2023-04-15T05:51:17;3.92;;;1.20;;
38787;SDS011;24536;45.488;12.238;2023-04-15T05:53:43;5.15;;;1.02;;
38787;SDS011;24536;45.488;12.238;2023-04-15T05:56:09;2.10;;;1.08;;
38787;SDS011;24536;45.488;12.238;2023-04-15T05:58:35;2.85;;;1.00;;
38787;SDS011;24536;45.488;12.238;2023-04-15T06:01:01;1.58;;;0.88;;
38787;SDS011;24536;45.488;12.238;2023-04-15T06:03:27;1.63;;;1.08;;
38787;SDS011;24536;45.488;12.238;2023-04-15T06:05:53;4.03;;;0.95;;
38787;SDS011;24536;45.488;12.238;2023-04-15T06:08:19;4.53;;;1.02;;
38787;SDS011;24536;45.488;12.238;2023-04-15T06:10:45;2.97;;;1.65;;
38787;SDS011;24536;45.488;12.238;2023-04-15T06:13:11;5.03;;;1.15;;
38787;SDS011;24536;45.488;12.238;2023-04-15T06:15:37;3.08;;;1.35;;
38787;SDS011;24536;45.488;12.238;2023-04-15T06:18:02;4.13;;;1.40;;
38787;SDS011;24536;45.488;12.238;2023-04-15T06:20:28;2.05;;;1.20;;
38787;SDS011;24536;45.488;12.238;2023-04-15T06:22:54;3.15;;;0.82;;
38787;SDS011;24536;45.488;12.238;2023-04-15T06:25:19;2.50;;;1.17;;
38787;SDS011;24536;45.488;12.238;2023-04-15T06:27:45;4.43;;;1.40;;
38787;SDS011;24536;45.488;12.238;2023-04-15T06:30:11;2.33;;;1.10;;
38787;SDS011;24536;45.488;12.238;2023-04-15T06:32:36;3.80;;;1.42;;
38787;SDS011;24536;45.488;12.238;2023-04-15T06:35:02;3.75;;;1.25;;
38787;SDS011;24536;45.488;12.238;2023-04-15T06:37:28;2.90;;;1.30;;
38787;SDS011;24536;45.488;12.238;2023-04-15T06:39:54;2.47;;;1.10;;
38787;SDS011;24536;45.488;12.238;2023-04-15T06:42:20;2.65;;;1.25;;
38787;SDS011;24536;45.488;12.238;2023-04-15T06:44:45;3.90;;;1.50;;
38787;SDS011;24536;45.488;12.238;2023-04-15T06:47:11;2.03;;;1.20;;
38787;SDS011;24536;45.488;12.238;2023-04-15T06:49:38;4.68;;;1.27;;
38787;SDS011;24536;45.488;12.238;2023-04-15T06:52:05;3.70;;;1.40;;
38787;SDS011;24536;45.488;12.238;2023-04-15T06:54:31;1.75;;;1.20;;
38787;SDS011;24536;45.488;12.238;2023-04-15T06:56:57;3.67;;;1.40;;
38787;SDS011;24536;45.488;12.238;2023-04-15T06:59:22;3.10;;;1.23;;
38787;SDS011;24536;45.488;12.238;2023-04-15T07:01:48;5.85;;;1.50;;
38787;SDS011;24536;45.488;12.238;2023-04-15T07:04:14;2.45;;;1.33;;
38787;SDS011;24536;45.488;12.238;2023-04-15T07:06:39;3.25;;;1.30;;
38787;SDS011;24536;45.488;12.238;2023-04-15T07:09:06;2.28;;;1.08;;
38787;SDS011;24536;45.488;12.238;2023-04-15T07:11:32;5.03;;;1.60;;
38787;SDS011;24536;45.488;12.238;2023-04-15T07:13:58;2.67;;;1.20;;
38787;SDS011;24536;45.488;12.238;2023-04-15T07:16:24;3.63;;;1.30;;
38787;SDS011;24536;45.488;12.238;2023-04-15T07:18:49;3.10;;;1.63;;
38787;SDS011;24536;45.488;12.238;2023-04-15T07:21:15;4.25;;;1.38;;
38787;SDS011;24536;45.488;12.238;2023-04-15T07:23:41;5.05;;;1.77;;
38787;SDS011;24536;45.488;12.238;2023-04-15T07:26:07;4.15;;;1.50;;
38787;SDS011;24536;45.488;12.238;2023-04-15T07:28:33;4.30;;;1.40;;
38787;SDS011;24536;45.488;12.238;2023-04-15T07:30:58;2.47;;;1.38;;
38787;SDS011;24536;45.488;12.238;2023-04-15T07:33:24;3.58;;;1.48;;
38787;SDS011;24536;45.488;12.238;2023-04-15T07:35:50;4.38;;;1.50;;
38787;SDS011;24536;45.488;12.238;2023-04-15T07:38:16;1.95;;;1.10;;
38787;SDS011;24536;45.488;12.238;2023-04-15T07:40:41;3.75;;;1.80;;
38787;SDS011;24536;45.488;12.238;2023-04-15T07:43:07;4.03;;;1.40;;
38787;SDS011;24536;45.488;12.238;2023-04-15T07:45:33;5.53;;;1.85;;
38787;SDS011;24536;45.488;12.238;2023-04-15T07:48:00;3.92;;;1.73;;
38787;SDS011;24536;45.488;12.238;2023-04-15T07:50:27;1.83;;;1.70;;
38787;SDS011;24536;45.488;12.238;2023-04-15T07:52:52;3.20;;;1.30;;
38787;SDS011;24536;45.488;12.238;2023-04-15T07:55:18;2.60;;;1.42;;
38787;SDS011;24536;45.488;12.238;2023-04-15T07:57:47;2.72;;;1.10;;
38787;SDS011;24536;45.488;12.238;2023-04-15T08:00:13;2.45;;;1.13;;
38787;SDS011;24536;45.488;12.238;2023-04-15T08:02:40;3.88;;;1.50;;
38787;SDS011;24536;45.488;12.238;2023-04-15T08:05:07;3.00;;;1.38;;
38787;SDS011;24536;45.488;12.238;2023-04-15T08:07:34;4.03;;;1.45;;
38787;SDS011;24536;45.488;12.238;2023-04-15T08:10:01;3.50;;;1.30;;
38787;SDS011;24536;45.488;12.238;2023-04-15T08:12:27;2.85;;;1.38;;
38787;SDS011;24536;45.488;12.238;2023-04-15T08:14:53;4.47;;;1.30;;
38787;SDS011;24536;45.488;12.238;2023-04-15T08:17:19;4.45;;;1.67;;
38787;SDS011;24536;45.488;12.238;2023-04-15T08:19:45;3.05;;;1.40;;
38787;SDS011;24536;45.488;12.238;2023-04-15T08:22:12;3.05;;;1.33;;
38787;SDS011;24536;45.488;12.238;2023-04-15T08:24:38;2.90;;;1.38;;
38787;SDS011;24536;45.488;12.238;2023-04-15T08:27:04;6.43;;;1.58;;
38787;SDS011;24536;45.488;12.238;2023-04-15T08:29:32;2.53;;;1.25;;
38787;SDS011;24536;45.488;12.238;2023-04-15T08:31:58;3.28;;;1.17;;
38787;SDS011;24536;45.488;12.238;2023-04-15T08:34:25;3.08;;;1.45;;
38787;SDS011;24536;45.488;12.238;2023-04-15T08:36:51;3.85;;;1.58;;
38787;SDS011;24536;45.488;12.238;2023-04-15T08:39:20;3.50;;;1.65;;
38787;SDS011;24536;45.488;12.238;2023-04-15T08:41:46;3.15;;;1.25;;
38787;SDS011;24536;45.488;12.238;2023-04-15T08:46:42;7.05;;;1.65;;
38787;SDS011;24536;45.488;12.238;2023-04-15T08:49:11;4.32;;;1.20;;
38787;SDS011;24536;45.488;12.238;2023-04-15T08:51:38;3.65;;;1.42;;
38787;SDS011;24536;45.488;12.238;2023-04-15T08:54:04;2.25;;;1.02;;
38787;SDS011;24536;45.488;12.238;2023-04-15T08:56:32;6.22;;;1.48;;
38787;SDS011;24536;45.488;12.238;2023-04-15T08:58:59;3.30;;;1.33;;
38787;SDS011;24536;45.488;12.238;2023-04-15T09:01:25;4.93;;;1.15;;
38787;SDS011;24536;45.488;12.238;2023-04-15T09:03:51;2.38;;;1.25;;
38787;SDS011;24536;45.488;12.238;2023-04-15T09:06:19;3.60;;;1.20;;
38787;SDS011;24536;45.488;12.238;2023-04-15T09:08:45;2.28;;;0.90;;
38787;SDS011;24536;45.488;12.238;2023-04-15T09:11:11;5.50;;;1.17;;
38787;SDS011;24536;45.488;12.238;2023-04-15T09:13:37;7.10;;;1.38;;
38787;SDS011;24536;45.488;12.238;2023-04-15T09:16:03;3.78;;;1.30;;
38787;SDS011;24536;45.488;12.238;2023-04-15T09:18:31;4.75;;;1.20;;
38787;SDS011;24536;45.488;12.238;2023-04-15T09:21:09;3.20;;;1.17;;
38787;SDS011;24536;45.488;12.238;2023-04-15T09:23:40;3.13;;;1.25;;
38787;SDS011;24536;45.488;12.238;2023-04-15T09:26:18;4.90;;;1.30;;
38787;SDS011;24536;45.488;12.238;2023-04-15T09:28:43;2.05;;;1.05;;
38787;SDS011;24536;45.488;12.238;2023-04-15T09:31:09;3.33;;;1.38;;
38787;SDS011;24536;45.488;12.238;2023-04-15T09:33:35;2.55;;;1.08;;
38787;SDS011;24536;45.488;12.238;2023-04-15T09:36:19;4.40;;;0.98;;
38787;SDS011;24536;45.488;12.238;2023-04-15T09:38:57;5.80;;;1.65;;
38787;SDS011;24536;45.488;12.238;2023-04-15T09:41:24;2.65;;;1.00;;
38787;SDS011;24536;45.488;12.238;2023-04-15T09:43:51;3.75;;;1.00;;
38787;SDS011;24536;45.488;12.238;2023-04-15T09:46:17;3.97;;;1.35;;
38787;SDS011;24536;45.488;12.238;2023-04-15T09:48:42;2.95;;;1.13;;
38787;SDS011;24536;45.488;12.238;2023-04-15T09:51:08;3.70;;;1.30;;
38787;SDS011;24536;45.488;12.238;2023-04-15T09:53:35;3.78;;;1.20;;
38787;SDS011;24536;45.488;12.238;2023-04-15T09:56:01;6.05;;;1.73;;
38787;SDS011;24536;45.488;12.238;2023-04-15T10:00:54;4.85;;;1.40;;
38787;SDS011;24536;45.488;12.238;2023-04-15T10:03:25;2.80;;;1.00;;
38787;SDS011;24536;45.488;12.238;2023-04-15T10:05:56;6.95;;;1.48;;
38787;SDS011;24536;45.488;12.238;2023-04-15T10:08:24;4.15;;;1.13;;
38787;SDS011;24536;45.488;12.238;2023-04-15T10:10:54;5.53;;;1.17;;
38787;SDS011;24536;45.488;12.238;2023-04-15T10:13:23;3.70;;;1.50;;
38787;SDS011;24536;45.488;12.238;2023-04-15T10:15:56;5.13;;;1.27;;
38787;SDS011;24536;45.488;12.238;2023-04-15T10:18:26;2.78;;;1.05;;
38787;SDS011;24536;45.488;12.238;2023-04-15T10:20:53;2.45;;;0.95;;
38787;SDS011;24536;45.488;12.238;2023-04-15T10:23:19;3.13;;;1.33;;
38787;SDS011;24536;45.488;12.238;2023-04-15T10:25:47;3.38;;;1.13;;
38787;SDS011;24536;45.488;12.238;2023-04-15T10:28:15;1.80;;;0.80;;
38787;SDS011;24536;45.488;12.238;2023-04-15T10:30:41;2.67;;;1.00;;
38787;SDS011;24536;45.488;12.238;2023-04-15T10:33:08;5.85;;;0.93;;
38787;SDS011;24536;45.488;12.238;2023-04-15T10:35:35;3.60;;;1.10;;
38787;SDS011;24536;45.488;12.238;2023-04-15T10:38:01;3.35;;;1.10;;
38787;SDS011;24536;45.488;12.238;2023-04-15T10:40:47;1.92;;;0.90;;
38787;SDS011;24536;45.488;12.238;2023-04-15T10:43:23;1.95;;;0.70;;
38787;SDS011;24536;45.488;12.238;2023-04-15T10:45:52;3.28;;;0.95;;
38787;SDS011;24536;45.488;12.238;2023-04-15T10:48:18;4.10;;;0.82;;
38787;SDS011;24536;45.488;12.238;2023-04-15T10:50:54;2.88;;;1.00;;
38787;SDS011;24536;45.488;12.238;2023-04-15T10:53:28;4.35;;;1.40;;
38787;SDS011;24536;45.488;12.238;2023-04-15T10:55:56;3.65;;;1.08;;
38787;SDS011;24536;45.488;12.238;2023-04-15T10:58:22;4.25;;;0.90;;
38787;SDS011;24536;45.488;12.238;2023-04-15T11:00:50;3.00;;;1.00;;
38787;SDS011;24536;45.488;12.238;2023-04-15T11:03:20;7.75;;;1.50;;
38787;SDS011;24536;45.488;12.238;2023-04-15T11:06:03;2.35;;;0.65;;
38787;SDS011;24536;45.488;12.238;2023-04-15T11:11:21;2.58;;;0.85;;
38787;SDS011;24536;45.488;12.238;2023-04-15T11:13:47;2.25;;;0.88;;
38787;SDS011;24536;45.488;12.238;2023-04-15T11:16:14;3.00;;;1.00;;
38787;SDS011;24536;45.488;12.238;2023-04-15T11:18:40;3.38;;;1.10;;
38787;SDS011;24536;45.488;12.238;2023-04-15T11:21:06;3.40;;;1.00;;
38787;SDS011;24536;45.488;12.238;2023-04-15T11:23:37;2.80;;;1.05;;
38787;SDS011;24536;45.488;12.238;2023-04-15T11:26:05;3.88;;;1.23;;
38787;SDS011;24536;45.488;12.238;2023-04-15T11:28:41;1.90;;;0.80;;
38787;SDS011;24536;45.488;12.238;2023-04-15T11:31:12;2.65;;;0.98;;
38787;SDS011;24536;45.488;12.238;2023-04-15T11:33:55;2.40;;;1.05;;
38787;SDS011;24536;45.488;12.238;2023-04-15T11:36:23;3.03;;;1.00;;
38787;SDS011;24536;45.488;12.238;2023-04-15T11:38:51;4.85;;;1.58;;
38787;SDS011;24536;45.488;12.238;2023-04-15T11:41:20;4.18;;;1.02;;
38787;SDS011;24536;45.488;12.238;2023-04-15T11:43:47;6.78;;;1.50;;
38787;SDS011;24536;45.488;12.238;2023-04-15T11:46:13;2.28;;;1.10;;
38787;SDS011;24536;45.488;12.238;2023-04-15T11:48:41;1.98;;;1.10;;
38787;SDS011;24536;45.488;12.238;2023-04-15T11:51:08;4.53;;;1.10;;
38787;SDS011;24536;45.488;12.238;2023-04-15T11:56:11;2.97;;;1.25;;
38787;SDS011;24536;45.488;12.238;2023-04-15T11:58:46;2.80;;;1.15;;
38787;SDS011;24536;45.488;12.238;2023-04-15T12:01:13;2.53;;;1.08;;
38787;SDS011;24536;45.488;12.238;2023-04-15T12:06:16;7.43;;;1.10;;
38787;SDS011;24536;45.488;12.238;2023-04-15T12:08:55;3.55;;;1.48;;
38787;SDS011;24536;45.488;12.238;2023-04-15T12:14:20;3.83;;;1.50;;
38787;SDS011;24536;45.488;12.238;2023-04-15T12:16:51;3.60;;;1.33;;
38787;SDS011;24536;45.488;12.238;2023-04-15T12:19:40;3.25;;;1.40;;
38787;SDS011;24536;45.488;12.238;2023-04-15T12:24:36;6.07;;;1.50;;
38787;SDS011;24536;45.488;12.238;2023-04-15T12:27:10;5.97;;;2.05;;
38787;SDS011;24536;45.488;12.238;2023-04-15T12:29:37;6.65;;;1.92;;
38787;SDS011;24536;45.488;12.238;2023-04-15T12:32:05;6.68;;;2.53;;
38787;SDS011;24536;45.488;12.238;2023-04-15T12:34:36;8.98;;;1.98;;
38787;SDS011;24536;45.488;12.238;2023-04-15T12:37:07;7.15;;;1.63;;
38787;SDS011;24536;45.488;12.238;2023-04-15T12:39:35;5.95;;;1.73;;
38787;SDS011;24536;45.488;12.238;2023-04-15T12:42:02;5.85;;;1.63;;
38787;SDS011;24536;45.488;12.238;2023-04-15T12:44:29;6.85;;;2.30;;
38787;SDS011;24536;45.488;12.238;2023-04-15T12:46:55;9.13;;;2.38;;
38787;SDS011;24536;45.488;12.238;2023-04-15T12:49:21;5.35;;;1.70;;
38787;SDS011;24536;45.488;12.238;2023-04-15T12:51:48;5.05;;;1.80;;
38787;SDS011;24536;45.488;12.238;2023-04-15T12:54:15;6.75;;;1.98;;
38787;SDS011;24536;45.488;12.238;2023-04-15T12:56:42;6.60;;;2.00;;
38787;SDS011;24536;45.488;12.238;2023-04-15T12:59:08;28.30;;;4.30;;
38787;SDS011;24536;45.488;12.238;2023-04-15T13:01:33;6.15;;;2.33;;
38787;SDS011;24536;45.488;12.238;2023-04-15T13:04:00;5.88;;;1.95;;
38787;SDS011;24536;45.488;12.238;2023-04-15T13:06:26;10.02;;;2.00;;
38787;SDS011;24536;45.488;12.238;2023-04-15T13:08:53;7.30;;;2.40;;
38787;SDS011;24536;45.488;12.238;2023-04-15T13:11:19;8.02;;;1.70;;
38787;SDS011;24536;45.488;12.238;2023-04-15T13:13:46;6.10;;;1.90;;
38787;SDS011;24536;45.488;12.238;2023-04-15T13:16:12;6.22;;;2.25;;
38787;SDS011;24536;45.488;12.238;2023-04-15T13:18:38;5.60;;;1.95;;
38787;SDS011;24536;45.488;12.238;2023-04-15T13:21:03;4.53;;;1.88;;
38787;SDS011;24536;45.488;12.238;2023-04-15T13:23:31;5.97;;;2.08;;
38787;SDS011;24536;45.488;12.238;2023-04-15T13:25:57;9.32;;;2.67;;
38787;SDS011;24536;45.488;12.238;2023-04-15T13:28:23;5.28;;;2.00;;
38787;SDS011;24536;45.488;12.238;2023-04-15T13:30:49;5.38;;;1.90;;
38787;SDS011;24536;45.488;12.238;2023-04-15T13:33:15;7.35;;;2.33;;
38787;SDS011;24536;45.488;12.238;2023-04-15T13:35:42;4.18;;;1.83;;
38787;SDS011;24536;45.488;12.238;2023-04-15T13:38:07;10.07;;;2.20;;
38787;SDS011;24536;45.488;12.238;2023-04-15T13:40:33;8.60;;;2.13;;
38787;SDS011;24536;45.488;12.238;2023-04-15T13:42:59;7.15;;;1.92;;
38787;SDS011;24536;45.488;12.238;2023-04-15T13:45:26;7.88;;;1.85;;
38787;SDS011;24536;45.488;12.238;2023-04-15T13:47:51;5.15;;;1.77;;
38787;SDS011;24536;45.488;12.238;2023-04-15T13:50:17;4.63;;;1.90;;
38787;SDS011;24536;45.488;12.238;2023-04-15T13:52:43;3.95;;;1.42;;
38787;SDS011;24536;45.488;12.238;2023-04-15T13:55:09;4.65;;;1.95;;
38787;SDS011;24536;45.488;12.238;2023-04-15T13:57:34;5.63;;;1.77;;
38787;SDS011;24536;45.488;12.238;2023-04-15T14:00:01;7.60;;;1.77;;
38787;SDS011;24536;45.488;12.238;2023-04-15T14:02:28;5.38;;;1.75;;
38787;SDS011;24536;45.488;12.238;2023-04-15T14:04:54;5.78;;;1.77;;
38787;SDS011;24536;45.488;12.238;2023-04-15T14:07:20;4.85;;;1.65;;
38787;SDS011;24536;45.488;12.238;2023-04-15T14:09:47;5.00;;;2.20;;
38787;SDS011;24536;45.488;12.238;2023-04-15T14:12:12;5.65;;;2.03;;
38787;SDS011;24536;45.488;12.238;2023-04-15T14:14:38;3.30;;;1.80;;
38787;SDS011;24536;45.488;12.238;2023-04-15T14:17:05;4.07;;;1.70;;
38787;SDS011;24536;45.488;12.238;2023-04-15T14:19:31;6.72;;;2.17;;
38787;SDS011;24536;45.488;12.238;2023-04-15T14:21:57;3.45;;;1.83;;
38787;SDS011;24536;45.488;12.238;2023-04-15T14:24:23;4.75;;;1.98;;
38787;SDS011;24536;45.488;12.238;2023-04-15T14:26:49;5.93;;;1.80;;
38787;SDS011;24536;45.488;12.238;2023-04-15T14:29:15;3.22;;;1.40;;
38787;SDS011;24536;45.488;12.238;2023-04-15T14:31:41;3.78;;;1.65;;
38787;SDS011;24536;45.488;12.238;2023-04-15T14:34:08;5.43;;;1.30;;
38787;SDS011;24536;45.488;12.238;2023-04-15T14:36:35;4.80;;;1.35;;
38787;SDS011;24536;45.488;12.238;2023-04-15T14:39:00;3.95;;;1.20;;
38787;SDS011;24536;45.488;12.238;2023-04-15T14:41:28;5.05;;;1.15;;
38787;SDS011;24536;45.488;12.238;2023-04-15T14:43:54;2.65;;;1.60;;
38787;SDS011;24536;45.488;12.238;2023-04-15T14:46:20;2.70;;;1.00;;
38787;SDS011;24536;45.488;12.238;2023-04-15T14:48:46;2.70;;;0.93;;
38787;SDS011;24536;45.488;12.238;2023-04-15T14:51:13;3.53;;;1.00;;